sensor_id;sensor_type;location;lat;lon;timestamp;P1;durP1;ratioP1;P2;durP2;ratioP2
79687;SDS011;69155;49.464;2.108;2024-01-06T00:01:36;10.47;;;3.93;;
79687;SDS011;69155;49.464;2.108;2024-01-06T00:04:02;10.17;;;3.93;;
79687;SDS011;69155;49.464;2.108;2024-01-06T00:06:27;7.83;;;4.57;;
79687;SDS011;69155;49.464;2.108;2024-01-06T00:08:52;9.27;;;4.87;;
79687;SDS011;69155;49.464;2.108;2024-01-06T00:11:20;10.70;;;4.93;;
79687;SDS011;69155;49.464;2.108;2024-01-06T00:13:46;8.50;;;4.35;;
79687;SDS011;69155;49.464;2.108;2024-01-06T00:16:11;8.95;;;3.50;;
79687;SDS011;69155;49.464;2.108;2024-01-06T00:18:36;7.97;;;4.47;;
79687;SDS011;69155;49.464;2.108;2024-01-06T00:21:01;7.23;;;4.47;;
79687;SDS011;69155;49.464;2.108;2024-01-06T00:23:26;7.97;;;3.80;;
79687;SDS011;69155;49.464;2.108;2024-01-06T00:25:52;8.87;;;4.77;;
79687;SDS011;69155;49.464;2.108;2024-01-06T00:28:17;8.40;;;4.77;;
79687;SDS011;69155;49.464;2.108;2024-01-06T00:30:51;7.43;;;4.17;;
79687;SDS011;69155;49.464;2.108;2024-01-06T00:33:23;6.85;;;4.22;;
79687;SDS011;69155;49.464;2.108;2024-01-06T00:35:48;14.37;;;4.27;;
79687;SDS011;69155;49.464;2.108;2024-01-06T00:38:14;8.53;;;4.40;;
79687;SDS011;69155;49.464;2.108;2024-01-06T00:40:39;7.20;;;3.93;;
79687;SDS011;69155;49.464;2.108;2024-01-06T00:43:04;9.77;;;4.50;;
79687;SDS011;69155;49.464;2.108;2024-01-06T00:45:29;6.80;;;4.03;;
79687;SDS011;69155;49.464;2.108;2024-01-06T00:47:55;10.48;;;4.43;;
79687;SDS011;69155;49.464;2.108;2024-01-06T00:50:21;6.63;;;3.77;;
79687;SDS011;69155;49.464;2.108;2024-01-06T00:52:46;10.17;;;4.40;;
79687;SDS011;69155;49.464;2.108;2024-01-06T00:55:11;6.60;;;3.70;;
79687;SDS011;69155;49.464;2.108;2024-01-06T00:57:36;5.37;;;3.50;;
79687;SDS011;69155;49.464;2.108;2024-01-06T01:00:03;9.73;;;4.22;;
79687;SDS011;69155;49.464;2.108;2024-01-06T01:02:28;8.50;;;4.20;;
79687;SDS011;69155;49.464;2.108;2024-01-06T01:04:54;5.87;;;3.97;;
79687;SDS011;69155;49.464;2.108;2024-01-06T01:07:19;10.60;;;4.20;;
79687;SDS011;69155;49.464;2.108;2024-01-06T01:09:44;10.63;;;4.70;;
79687;SDS011;69155;49.464;2.108;2024-01-06T01:12:10;8.77;;;4.57;;
79687;SDS011;69155;49.464;2.108;2024-01-06T01:14:35;11.60;;;4.80;;
79687;SDS011;69155;49.464;2.108;2024-01-06T01:17:00;10.13;;;4.50;;
79687;SDS011;69155;49.464;2.108;2024-01-06T01:19:26;11.33;;;5.43;;
79687;SDS011;69155;49.464;2.108;2024-01-06T01:21:54;10.95;;;5.68;;
79687;SDS011;69155;49.464;2.108;2024-01-06T01:24:21;15.18;;;5.38;;
79687;SDS011;69155;49.464;2.108;2024-01-06T01:26:46;8.38;;;5.20;;
79687;SDS011;69155;49.464;2.108;2024-01-06T01:29:11;11.03;;;4.80;;
79687;SDS011;69155;49.464;2.108;2024-01-06T01:31:36;12.30;;;5.07;;
79687;SDS011;69155;49.464;2.108;2024-01-06T01:34:02;8.68;;;4.55;;
79687;SDS011;69155;49.464;2.108;2024-01-06T01:36:27;7.83;;;4.70;;
79687;SDS011;69155;49.464;2.108;2024-01-06T01:38:52;7.00;;;4.03;;
79687;SDS011;69155;49.464;2.108;2024-01-06T01:41:17;6.83;;;4.63;;
79687;SDS011;69155;49.464;2.108;2024-01-06T01:43:43;10.93;;;4.30;;
79687;SDS011;69155;49.464;2.108;2024-01-06T01:46:08;7.40;;;4.20;;
79687;SDS011;69155;49.464;2.108;2024-01-06T01:48:36;7.03;;;4.17;;
79687;SDS011;69155;49.464;2.108;2024-01-06T01:51:01;8.90;;;4.50;;
79687;SDS011;69155;49.464;2.108;2024-01-06T01:53:26;8.13;;;4.20;;
79687;SDS011;69155;49.464;2.108;2024-01-06T01:55:52;11.03;;;4.23;;
79687;SDS011;69155;49.464;2.108;2024-01-06T01:58:17;8.38;;;4.18;;
79687;SDS011;69155;49.464;2.108;2024-01-06T02:00:43;9.13;;;4.10;;
79687;SDS011;69155;49.464;2.108;2024-01-06T02:03:08;10.03;;;4.37;;
79687;SDS011;69155;49.464;2.108;2024-01-06T02:05:34;7.45;;;4.05;;
79687;SDS011;69155;49.464;2.108;2024-01-06T02:08:02;7.13;;;4.03;;
79687;SDS011;69155;49.464;2.108;2024-01-06T02:10:27;8.38;;;4.45;;
79687;SDS011;69155;49.464;2.108;2024-01-06T02:12:53;7.40;;;4.32;;
79687;SDS011;69155;49.464;2.108;2024-01-06T02:15:18;8.93;;;4.87;;
79687;SDS011;69155;49.464;2.108;2024-01-06T02:17:46;8.13;;;4.28;;
79687;SDS011;69155;49.464;2.108;2024-01-06T02:20:14;8.50;;;4.82;;
79687;SDS011;69155;49.464;2.108;2024-01-06T02:22:41;11.80;;;4.35;;
79687;SDS011;69155;49.464;2.108;2024-01-06T02:25:07;7.13;;;4.20;;
79687;SDS011;69155;49.464;2.108;2024-01-06T02:27:37;9.95;;;4.32;;
79687;SDS011;69155;49.464;2.108;2024-01-06T02:30:02;8.02;;;3.88;;
79687;SDS011;69155;49.464;2.108;2024-01-06T02:32:28;7.03;;;3.83;;
79687;SDS011;69155;49.464;2.108;2024-01-06T02:34:53;8.83;;;4.20;;
79687;SDS011;69155;49.464;2.108;2024-01-06T02:37:18;8.77;;;4.03;;
79687;SDS011;69155;49.464;2.108;2024-01-06T02:39:43;11.43;;;4.90;;
79687;SDS011;69155;49.464;2.108;2024-01-06T02:42:09;7.27;;;4.10;;
79687;SDS011;69155;49.464;2.108;2024-01-06T02:44:34;8.13;;;4.37;;
79687;SDS011;69155;49.464;2.108;2024-01-06T02:46:59;9.00;;;4.43;;
79687;SDS011;69155;49.464;2.108;2024-01-06T02:49:24;13.73;;;4.53;;
79687;SDS011;69155;49.464;2.108;2024-01-06T02:51:50;6.93;;;4.32;;
79687;SDS011;69155;49.464;2.108;2024-01-06T02:54:15;7.43;;;4.30;;
79687;SDS011;69155;49.464;2.108;2024-01-06T02:56:40;10.63;;;4.80;;
79687;SDS011;69155;49.464;2.108;2024-01-06T02:59:05;8.47;;;4.07;;
79687;SDS011;69155;49.464;2.108;2024-01-06T03:01:33;9.18;;;5.28;;
79687;SDS011;69155;49.464;2.108;2024-01-06T03:03:59;8.38;;;4.85;;
79687;SDS011;69155;49.464;2.108;2024-01-06T03:06:24;10.67;;;5.00;;
79687;SDS011;69155;49.464;2.108;2024-01-06T03:08:49;10.57;;;5.23;;
79687;SDS011;69155;49.464;2.108;2024-01-06T03:11:15;11.97;;;5.63;;
79687;SDS011;69155;49.464;2.108;2024-01-06T03:13:40;19.17;;;6.10;;
79687;SDS011;69155;49.464;2.108;2024-01-06T03:16:05;13.53;;;6.57;;
79687;SDS011;69155;49.464;2.108;2024-01-06T03:18:33;11.15;;;6.25;;
79687;SDS011;69155;49.464;2.108;2024-01-06T03:20:59;15.77;;;5.80;;
79687;SDS011;69155;49.464;2.108;2024-01-06T03:23:24;14.03;;;6.77;;
79687;SDS011;69155;49.464;2.108;2024-01-06T03:25:49;10.97;;;5.50;;
79687;SDS011;69155;49.464;2.108;2024-01-06T03:28:14;13.70;;;6.33;;
79687;SDS011;69155;49.464;2.108;2024-01-06T03:30:40;12.00;;;5.47;;
79687;SDS011;69155;49.464;2.108;2024-01-06T03:33:05;8.30;;;4.45;;
79687;SDS011;69155;49.464;2.108;2024-01-06T03:35:31;10.68;;;4.95;;
79687;SDS011;69155;49.464;2.108;2024-01-06T03:37:56;10.23;;;5.07;;
79687;SDS011;69155;49.464;2.108;2024-01-06T03:40:21;9.57;;;5.10;;
79687;SDS011;69155;49.464;2.108;2024-01-06T03:42:46;8.57;;;4.97;;
79687;SDS011;69155;49.464;2.108;2024-01-06T03:45:12;9.27;;;4.73;;
79687;SDS011;69155;49.464;2.108;2024-01-06T03:47:37;13.60;;;5.10;;
79687;SDS011;69155;49.464;2.108;2024-01-06T03:50:02;9.67;;;5.53;;
79687;SDS011;69155;49.464;2.108;2024-01-06T03:52:28;8.73;;;5.23;;
79687;SDS011;69155;49.464;2.108;2024-01-06T03:54:53;9.83;;;5.37;;
79687;SDS011;69155;49.464;2.108;2024-01-06T03:57:18;10.77;;;4.50;;
79687;SDS011;69155;49.464;2.108;2024-01-06T03:59:43;9.97;;;4.43;;
79687;SDS011;69155;49.464;2.108;2024-01-06T04:02:09;10.07;;;4.93;;
79687;SDS011;69155;49.464;2.108;2024-01-06T04:04:34;9.43;;;4.17;;
79687;SDS011;69155;49.464;2.108;2024-01-06T04:06:59;7.77;;;4.27;;
79687;SDS011;69155;49.464;2.108;2024-01-06T04:09:26;8.23;;;4.07;;
79687;SDS011;69155;49.464;2.108;2024-01-06T04:11:51;7.20;;;4.03;;
79687;SDS011;69155;49.464;2.108;2024-01-06T04:14:16;8.30;;;4.30;;
79687;SDS011;69155;49.464;2.108;2024-01-06T04:16:42;5.30;;;3.30;;
79687;SDS011;69155;49.464;2.108;2024-01-06T04:19:07;6.00;;;3.33;;
79687;SDS011;69155;49.464;2.108;2024-01-06T04:21:33;10.05;;;3.63;;
79687;SDS011;69155;49.464;2.108;2024-01-06T04:23:59;4.77;;;3.00;;
79687;SDS011;69155;49.464;2.108;2024-01-06T04:26:24;5.53;;;3.10;;
79687;SDS011;69155;49.464;2.108;2024-01-06T04:28:49;5.70;;;2.83;;
79687;SDS011;69155;49.464;2.108;2024-01-06T04:31:14;5.05;;;2.70;;
79687;SDS011;69155;49.464;2.108;2024-01-06T04:33:40;6.00;;;3.10;;
79687;SDS011;69155;49.464;2.108;2024-01-06T04:36:06;8.13;;;3.23;;
79687;SDS011;69155;49.464;2.108;2024-01-06T04:38:31;6.70;;;2.92;;
79687;SDS011;69155;49.464;2.108;2024-01-06T04:40:56;8.43;;;3.13;;
79687;SDS011;69155;49.464;2.108;2024-01-06T04:43:21;5.03;;;2.60;;
79687;SDS011;69155;49.464;2.108;2024-01-06T04:45:47;4.50;;;2.67;;
79687;SDS011;69155;49.464;2.108;2024-01-06T04:48:12;4.60;;;2.47;;
79687;SDS011;69155;49.464;2.108;2024-01-06T04:50:37;4.93;;;1.83;;
79687;SDS011;69155;49.464;2.108;2024-01-06T04:53:03;4.17;;;2.13;;
79687;SDS011;69155;49.464;2.108;2024-01-06T04:55:28;5.57;;;1.90;;
79687;SDS011;69155;49.464;2.108;2024-01-06T04:57:53;3.30;;;1.85;;
79687;SDS011;69155;49.464;2.108;2024-01-06T05:00:19;1.90;;;1.70;;
79687;SDS011;69155;49.464;2.108;2024-01-06T05:02:46;4.30;;;1.70;;
79687;SDS011;69155;49.464;2.108;2024-01-06T05:05:11;2.90;;;1.50;;
79687;SDS011;69155;49.464;2.108;2024-01-06T05:07:37;2.83;;;1.50;;
79687;SDS011;69155;49.464;2.108;2024-01-06T05:10:02;5.43;;;1.90;;
79687;SDS011;69155;49.464;2.108;2024-01-06T05:12:27;3.03;;;1.63;;
79687;SDS011;69155;49.464;2.108;2024-01-06T05:14:53;3.05;;;1.60;;
79687;SDS011;69155;49.464;2.108;2024-01-06T05:17:18;4.10;;;1.52;;
79687;SDS011;69155;49.464;2.108;2024-01-06T05:19:43;7.40;;;1.63;;
79687;SDS011;69155;49.464;2.108;2024-01-06T05:22:12;5.65;;;1.90;;
79687;SDS011;69155;49.464;2.108;2024-01-06T05:24:37;3.07;;;1.70;;
79687;SDS011;69155;49.464;2.108;2024-01-06T05:27:02;4.20;;;1.80;;
79687;SDS011;69155;49.464;2.108;2024-01-06T05:29:27;4.47;;;1.93;;
79687;SDS011;69155;49.464;2.108;2024-01-06T05:31:53;3.07;;;1.83;;
79687;SDS011;69155;49.464;2.108;2024-01-06T05:34:18;2.77;;;1.90;;
79687;SDS011;69155;49.464;2.108;2024-01-06T05:36:43;3.03;;;1.90;;
79687;SDS011;69155;49.464;2.108;2024-01-06T05:39:08;9.73;;;2.60;;
79687;SDS011;69155;49.464;2.108;2024-01-06T05:41:37;5.15;;;2.97;;
79687;SDS011;69155;49.464;2.108;2024-01-06T05:44:03;3.80;;;2.30;;
79687;SDS011;69155;49.464;2.108;2024-01-06T05:46:28;5.03;;;2.50;;
79687;SDS011;69155;49.464;2.108;2024-01-06T05:48:53;5.20;;;2.17;;
79687;SDS011;69155;49.464;2.108;2024-01-06T05:51:20;5.13;;;2.10;;
79687;SDS011;69155;49.464;2.108;2024-01-06T05:53:46;5.23;;;2.47;;
79687;SDS011;69155;49.464;2.108;2024-01-06T05:56:11;3.97;;;2.27;;
79687;SDS011;69155;49.464;2.108;2024-01-06T05:58:36;5.20;;;2.10;;
79687;SDS011;69155;49.464;2.108;2024-01-06T06:01:01;4.83;;;1.90;;
79687;SDS011;69155;49.464;2.108;2024-01-06T06:03:27;4.83;;;1.80;;
79687;SDS011;69155;49.464;2.108;2024-01-06T06:05:52;4.80;;;2.23;;
79687;SDS011;69155;49.464;2.108;2024-01-06T06:08:18;4.05;;;2.03;;
79687;SDS011;69155;49.464;2.108;2024-01-06T06:10:43;3.83;;;2.20;;
79687;SDS011;69155;49.464;2.108;2024-01-06T06:13:16;4.45;;;2.30;;
79687;SDS011;69155;49.464;2.108;2024-01-06T06:15:42;4.90;;;2.38;;
79687;SDS011;69155;49.464;2.108;2024-01-06T06:18:07;8.13;;;2.97;;
79687;SDS011;69155;49.464;2.108;2024-01-06T06:20:32;7.67;;;2.47;;
79687;SDS011;69155;49.464;2.108;2024-01-06T06:22:57;5.67;;;2.03;;
79687;SDS011;69155;49.464;2.108;2024-01-06T06:25:23;6.67;;;2.97;;
79687;SDS011;69155;49.464;2.108;2024-01-06T06:27:48;9.17;;;2.30;;
79687;SDS011;69155;49.464;2.108;2024-01-06T06:30:13;8.17;;;2.53;;
79687;SDS011;69155;49.464;2.108;2024-01-06T06:32:38;3.00;;;2.20;;
79687;SDS011;69155;49.464;2.108;2024-01-06T06:35:04;5.43;;;2.90;;
79687;SDS011;69155;49.464;2.108;2024-01-06T06:37:29;4.75;;;2.38;;
79687;SDS011;69155;49.464;2.108;2024-01-06T06:39:54;5.93;;;2.40;;
79687;SDS011;69155;49.464;2.108;2024-01-06T06:42:20;3.60;;;1.97;;
79687;SDS011;69155;49.464;2.108;2024-01-06T06:44:45;4.30;;;2.10;;
79687;SDS011;69155;49.464;2.108;2024-01-06T06:47:10;2.90;;;1.80;;
79687;SDS011;69155;49.464;2.108;2024-01-06T06:49:38;4.75;;;1.60;;
79687;SDS011;69155;49.464;2.108;2024-01-06T06:52:07;4.63;;;2.15;;
79687;SDS011;69155;49.464;2.108;2024-01-06T06:54:32;4.40;;;2.20;;
79687;SDS011;69155;49.464;2.108;2024-01-06T06:56:58;6.93;;;2.10;;
79687;SDS011;69155;49.464;2.108;2024-01-06T06:59:23;3.67;;;2.20;;
79687;SDS011;69155;49.464;2.108;2024-01-06T07:01:51;10.32;;;2.28;;
79687;SDS011;69155;49.464;2.108;2024-01-06T07:04:16;10.77;;;2.47;;
79687;SDS011;69155;49.464;2.108;2024-01-06T07:06:42;4.83;;;2.03;;
79687;SDS011;69155;49.464;2.108;2024-01-06T07:09:07;3.33;;;1.83;;
79687;SDS011;69155;49.464;2.108;2024-01-06T07:11:32;8.67;;;2.17;;
79687;SDS011;69155;49.464;2.108;2024-01-06T07:13:57;15.50;;;2.27;;
79687;SDS011;69155;49.464;2.108;2024-01-06T07:16:23;3.63;;;1.97;;
79687;SDS011;69155;49.464;2.108;2024-01-06T07:18:48;5.47;;;2.17;;
79687;SDS011;69155;49.464;2.108;2024-01-06T07:21:16;3.03;;;2.00;;
79687;SDS011;69155;49.464;2.108;2024-01-06T07:23:41;3.75;;;1.75;;
79687;SDS011;69155;49.464;2.108;2024-01-06T07:26:09;1.95;;;1.55;;
79687;SDS011;69155;49.464;2.108;2024-01-06T07:28:34;1.63;;;1.30;;
79687;SDS011;69155;49.464;2.108;2024-01-06T07:31:00;1.67;;;1.10;;
79687;SDS011;69155;49.464;2.108;2024-01-06T07:33:25;1.00;;;0.90;;
79687;SDS011;69155;49.464;2.108;2024-01-06T07:35:51;4.53;;;0.98;;
79687;SDS011;69155;49.464;2.108;2024-01-06T07:38:16;5.53;;;1.30;;
79687;SDS011;69155;49.464;2.108;2024-01-06T07:40:41;3.67;;;1.30;;
79687;SDS011;69155;49.464;2.108;2024-01-06T07:43:09;2.63;;;1.10;;
79687;SDS011;69155;49.464;2.108;2024-01-06T07:45:34;1.37;;;1.07;;
79687;SDS011;69155;49.464;2.108;2024-01-06T07:47:59;2.77;;;1.40;;
79687;SDS011;69155;49.464;2.108;2024-01-06T07:50:25;1.47;;;0.83;;
79687;SDS011;69155;49.464;2.108;2024-01-06T07:52:50;3.08;;;1.33;;
79687;SDS011;69155;49.464;2.108;2024-01-06T07:55:18;1.60;;;0.77;;
79687;SDS011;69155;49.464;2.108;2024-01-06T07:57:44;0.73;;;0.47;;
79687;SDS011;69155;49.464;2.108;2024-01-06T08:00:10;2.22;;;0.75;;
79687;SDS011;69155;49.464;2.108;2024-01-06T08:02:35;0.57;;;0.52;;
79687;SDS011;69155;49.464;2.108;2024-01-06T08:05:03;1.63;;;0.87;;
79687;SDS011;69155;49.464;2.108;2024-01-06T08:07:28;1.55;;;0.68;;
79687;SDS011;69155;49.464;2.108;2024-01-06T08:09:54;1.33;;;0.70;;
79687;SDS011;69155;49.464;2.108;2024-01-06T08:12:19;1.10;;;1.00;;
79687;SDS011;69155;49.464;2.108;2024-01-06T08:14:44;0.87;;;0.77;;
79687;SDS011;69155;49.464;2.108;2024-01-06T08:17:09;2.63;;;0.57;;
79687;SDS011;69155;49.464;2.108;2024-01-06T08:19:41;4.13;;;0.80;;
79687;SDS011;69155;49.464;2.108;2024-01-06T08:22:07;5.82;;;1.08;;
79687;SDS011;69155;49.464;2.108;2024-01-06T08:24:32;4.40;;;1.57;;
79687;SDS011;69155;49.464;2.108;2024-01-06T08:26:57;3.23;;;1.73;;
79687;SDS011;69155;49.464;2.108;2024-01-06T08:29:22;3.13;;;1.50;;
79687;SDS011;69155;49.464;2.108;2024-01-06T08:31:47;3.63;;;1.30;;
79687;SDS011;69155;49.464;2.108;2024-01-06T08:34:17;1.90;;;0.73;;
79687;SDS011;69155;49.464;2.108;2024-01-06T08:36:45;7.43;;;1.35;;
79687;SDS011;69155;49.464;2.108;2024-01-06T08:39:11;0.68;;;0.68;;
79687;SDS011;69155;49.464;2.108;2024-01-06T08:41:36;4.00;;;0.97;;
79687;SDS011;69155;49.464;2.108;2024-01-06T08:44:01;3.10;;;0.90;;
79687;SDS011;69155;49.464;2.108;2024-01-06T08:46:26;0.40;;;0.40;;
79687;SDS011;69155;49.464;2.108;2024-01-06T08:48:52;3.03;;;0.98;;
79687;SDS011;69155;49.464;2.108;2024-01-06T08:51:17;1.07;;;0.80;;
79687;SDS011;69155;49.464;2.108;2024-01-06T08:53:42;9.43;;;1.07;;
79687;SDS011;69155;49.464;2.108;2024-01-06T08:56:08;3.33;;;1.40;;
79687;SDS011;69155;49.464;2.108;2024-01-06T08:58:33;0.95;;;0.60;;
79687;SDS011;69155;49.464;2.108;2024-01-06T09:00:58;0.60;;;0.60;;
79687;SDS011;69155;49.464;2.108;2024-01-06T09:03:24;0.90;;;0.75;;
79687;SDS011;69155;49.464;2.108;2024-01-06T09:05:55;0.73;;;0.73;;
79687;SDS011;69155;49.464;2.108;2024-01-06T09:08:20;3.60;;;0.90;;
79687;SDS011;69155;49.464;2.108;2024-01-06T09:10:48;0.47;;;0.47;;
79687;SDS011;69155;49.464;2.108;2024-01-06T09:13:16;0.85;;;0.70;;
79687;SDS011;69155;49.464;2.108;2024-01-06T09:15:41;2.57;;;0.80;;
79687;SDS011;69155;49.464;2.108;2024-01-06T09:18:07;1.00;;;1.00;;
79687;SDS011;69155;49.464;2.108;2024-01-06T09:20:32;0.80;;;0.80;;
79687;SDS011;69155;49.464;2.108;2024-01-06T09:22:58;1.67;;;1.03;;
79687;SDS011;69155;49.464;2.108;2024-01-06T09:25:23;0.67;;;0.67;;
79687;SDS011;69155;49.464;2.108;2024-01-06T09:27:49;0.60;;;0.60;;
79687;SDS011;69155;49.464;2.108;2024-01-06T09:30:15;1.67;;;1.02;;
79687;SDS011;69155;49.464;2.108;2024-01-06T09:32:40;0.77;;;0.73;;
79687;SDS011;69155;49.464;2.108;2024-01-06T09:35:05;1.65;;;0.75;;
79687;SDS011;69155;49.464;2.108;2024-01-06T09:37:31;0.93;;;0.50;;
79687;SDS011;69155;49.464;2.108;2024-01-06T09:39:56;1.20;;;0.63;;
79687;SDS011;69155;49.464;2.108;2024-01-06T09:42:21;7.03;;;0.80;;
79687;SDS011;69155;49.464;2.108;2024-01-06T09:44:47;6.25;;;1.35;;
79687;SDS011;69155;49.464;2.108;2024-01-06T09:47:12;2.00;;;0.47;;
79687;SDS011;69155;49.464;2.108;2024-01-06T09:49:38;3.40;;;0.68;;
79687;SDS011;69155;49.464;2.108;2024-01-06T09:52:04;1.15;;;0.60;;
79687;SDS011;69155;49.464;2.108;2024-01-06T09:54:33;6.30;;;2.70;;
79687;SDS011;69155;49.464;2.108;2024-01-06T09:57:00;5.07;;;2.20;;
79687;SDS011;69155;49.464;2.108;2024-01-06T09:59:26;9.05;;;3.40;;
79687;SDS011;69155;49.464;2.108;2024-01-06T10:01:52;4.20;;;1.40;;
79687;SDS011;69155;49.464;2.108;2024-01-06T10:04:18;6.45;;;2.25;;
79687;SDS011;69155;49.464;2.108;2024-01-06T10:06:45;0.93;;;0.57;;
79687;SDS011;69155;49.464;2.108;2024-01-06T10:09:10;17.70;;;1.93;;
79687;SDS011;69155;49.464;2.108;2024-01-06T10:11:37;4.75;;;2.22;;
79687;SDS011;69155;49.464;2.108;2024-01-06T10:14:03;5.40;;;0.83;;
79687;SDS011;69155;49.464;2.108;2024-01-06T10:16:28;3.40;;;1.20;;
79687;SDS011;69155;49.464;2.108;2024-01-06T10:18:53;14.63;;;1.67;;
79687;SDS011;69155;49.464;2.108;2024-01-06T10:21:21;5.57;;;0.50;;
79687;SDS011;69155;49.464;2.108;2024-01-06T10:23:47;5.22;;;0.90;;
79687;SDS011;69155;49.464;2.108;2024-01-06T10:26:13;5.53;;;1.15;;
79687;SDS011;69155;49.464;2.108;2024-01-06T10:28:38;1.42;;;1.10;;
79687;SDS011;69155;49.464;2.108;2024-01-06T10:31:04;2.03;;;0.73;;
79687;SDS011;69155;49.464;2.108;2024-01-06T10:33:29;1.60;;;1.00;;
79687;SDS011;69155;49.464;2.108;2024-01-06T10:36:00;2.00;;;0.73;;
79687;SDS011;69155;49.464;2.108;2024-01-06T10:38:28;0.88;;;0.75;;
79687;SDS011;69155;49.464;2.108;2024-01-06T10:40:58;1.08;;;0.63;;
79687;SDS011;69155;49.464;2.108;2024-01-06T10:43:26;3.08;;;1.20;;
79687;SDS011;69155;49.464;2.108;2024-01-06T10:45:56;4.57;;;1.23;;
79687;SDS011;69155;49.464;2.108;2024-01-06T10:48:24;3.63;;;1.13;;
79687;SDS011;69155;49.464;2.108;2024-01-06T10:50:50;2.58;;;0.90;;
79687;SDS011;69155;49.464;2.108;2024-01-06T10:53:15;3.00;;;0.90;;
79687;SDS011;69155;49.464;2.108;2024-01-06T10:55:42;1.83;;;0.95;;
79687;SDS011;69155;49.464;2.108;2024-01-06T10:58:07;1.45;;;1.00;;
79687;SDS011;69155;49.464;2.108;2024-01-06T11:00:32;0.43;;;0.43;;
79687;SDS011;69155;49.464;2.108;2024-01-06T11:02:58;1.50;;;0.87;;
79687;SDS011;69155;49.464;2.108;2024-01-06T11:05:24;0.75;;;0.75;;
79687;SDS011;69155;49.464;2.108;2024-01-06T11:07:50;1.67;;;0.88;;
79687;SDS011;69155;49.464;2.108;2024-01-06T11:10:17;0.98;;;0.85;;
79687;SDS011;69155;49.464;2.108;2024-01-06T11:12:43;7.60;;;1.17;;
79687;SDS011;69155;49.464;2.108;2024-01-06T11:15:08;1.33;;;0.60;;
79687;SDS011;69155;49.464;2.108;2024-01-06T11:17:53;1.60;;;0.80;;
79687;SDS011;69155;49.464;2.108;2024-01-06T11:20:23;1.05;;;0.68;;
79687;SDS011;69155;49.464;2.108;2024-01-06T11:22:49;3.55;;;1.30;;
79687;SDS011;69155;49.464;2.108;2024-01-06T11:25:15;3.83;;;1.10;;
79687;SDS011;69155;49.464;2.108;2024-01-06T11:27:41;1.92;;;1.00;;
79687;SDS011;69155;49.464;2.108;2024-01-06T11:30:07;3.08;;;1.90;;
79687;SDS011;69155;49.464;2.108;2024-01-06T11:32:33;2.33;;;0.98;;
79687;SDS011;69155;49.464;2.108;2024-01-06T11:35:15;4.88;;;1.20;;
79687;SDS011;69155;49.464;2.108;2024-01-06T11:42:34;6.95;;;1.05;;
79687;SDS011;69155;49.464;2.108;2024-01-06T11:45:06;1.65;;;1.10;;
79687;SDS011;69155;49.464;2.108;2024-01-06T11:47:32;4.15;;;1.35;;
79687;SDS011;69155;49.464;2.108;2024-01-06T11:49:57;1.25;;;0.98;;
79687;SDS011;69155;49.464;2.108;2024-01-06T11:52:29;1.20;;;1.10;;
79687;SDS011;69155;49.464;2.108;2024-01-06T11:54:55;1.95;;;1.15;;
79687;SDS011;69155;49.464;2.108;2024-01-06T11:57:20;0.98;;;0.80;;
79687;SDS011;69155;49.464;2.108;2024-01-06T11:59:48;3.70;;;0.90;;
79687;SDS011;69155;49.464;2.108;2024-01-06T12:02:17;5.78;;;1.83;;
79687;SDS011;69155;49.464;2.108;2024-01-06T12:04:42;3.22;;;1.13;;
79687;SDS011;69155;49.464;2.108;2024-01-06T12:07:08;4.60;;;1.37;;
79687;SDS011;69155;49.464;2.108;2024-01-06T12:09:36;2.58;;;1.13;;
79687;SDS011;69155;49.464;2.108;2024-01-06T12:12:04;2.40;;;1.10;;
79687;SDS011;69155;49.464;2.108;2024-01-06T12:14:32;2.30;;;1.00;;
79687;SDS011;69155;49.464;2.108;2024-01-06T12:16:58;2.07;;;0.80;;
79687;SDS011;69155;49.464;2.108;2024-01-06T12:19:27;1.35;;;0.98;;
79687;SDS011;69155;49.464;2.108;2024-01-06T12:47:32;0.90;;;0.80;;
79687;SDS011;69155;49.464;2.108;2024-01-06T12:49:58;5.30;;;0.93;;
79687;SDS011;69155;49.464;2.108;2024-01-06T12:52:23;2.85;;;1.33;;
79687;SDS011;69155;49.464;2.108;2024-01-06T12:54:49;5.55;;;1.08;;
79687;SDS011;69155;49.464;2.108;2024-01-06T12:57:14;1.50;;;0.90;;
79687;SDS011;69155;49.464;2.108;2024-01-06T12:59:39;2.75;;;1.23;;
79687;SDS011;69155;49.464;2.108;2024-01-06T13:02:05;0.90;;;0.90;;
79687;SDS011;69155;49.464;2.108;2024-01-06T13:04:30;1.75;;;1.20;;
79687;SDS011;69155;49.464;2.108;2024-01-06T13:06:56;3.45;;;1.50;;
79687;SDS011;69155;49.464;2.108;2024-01-06T13:09:21;6.47;;;1.50;;
79687;SDS011;69155;49.464;2.108;2024-01-06T13:11:48;4.28;;;1.30;;
79687;SDS011;69155;49.464;2.108;2024-01-06T13:14:16;4.35;;;1.30;;
79687;SDS011;69155;49.464;2.108;2024-01-06T13:16:41;2.20;;;1.20;;
79687;SDS011;69155;49.464;2.108;2024-01-06T13:19:06;2.90;;;1.03;;
79687;SDS011;69155;49.464;2.108;2024-01-06T13:21:32;3.03;;;1.10;;
79687;SDS011;69155;49.464;2.108;2024-01-06T13:24:01;1.30;;;0.87;;
79687;SDS011;69155;49.464;2.108;2024-01-06T13:26:27;2.25;;;1.42;;
79687;SDS011;69155;49.464;2.108;2024-01-06T13:28:53;2.50;;;1.20;;
79687;SDS011;69155;49.464;2.108;2024-01-06T13:31:18;7.15;;;1.40;;
79687;SDS011;69155;49.464;2.108;2024-01-06T13:33:44;1.65;;;1.15;;
79687;SDS011;69155;49.464;2.108;2024-01-06T13:36:09;3.77;;;1.30;;
79687;SDS011;69155;49.464;2.108;2024-01-06T13:38:34;2.57;;;0.97;;
79687;SDS011;69155;49.464;2.108;2024-01-06T13:41:00;1.70;;;1.10;;
79687;SDS011;69155;49.464;2.108;2024-01-06T13:43:25;2.97;;;1.30;;
79687;SDS011;69155;49.464;2.108;2024-01-06T13:45:50;1.90;;;1.03;;
79687;SDS011;69155;49.464;2.108;2024-01-06T13:48:15;1.23;;;1.13;;
79687;SDS011;69155;49.464;2.108;2024-01-06T13:50:41;7.43;;;1.43;;
79687;SDS011;69155;49.464;2.108;2024-01-06T13:53:06;8.37;;;1.27;;
79687;SDS011;69155;49.464;2.108;2024-01-06T13:55:32;5.37;;;1.40;;
79687;SDS011;69155;49.464;2.108;2024-01-06T13:57:58;7.65;;;1.67;;
79687;SDS011;69155;49.464;2.108;2024-01-06T14:00:23;2.07;;;1.10;;
79687;SDS011;69155;49.464;2.108;2024-01-06T14:02:49;4.03;;;1.60;;
79687;SDS011;69155;49.464;2.108;2024-01-06T14:05:15;2.20;;;1.15;;
79687;SDS011;69155;49.464;2.108;2024-01-06T14:07:40;4.53;;;1.20;;
79687;SDS011;69155;49.464;2.108;2024-01-06T14:10:10;1.50;;;1.00;;
79687;SDS011;69155;49.464;2.108;2024-01-06T14:12:35;2.93;;;1.40;;
79687;SDS011;69155;49.464;2.108;2024-01-06T14:15:00;1.07;;;0.90;;
79687;SDS011;69155;49.464;2.108;2024-01-06T14:17:26;1.17;;;1.05;;
79687;SDS011;69155;49.464;2.108;2024-01-06T14:19:51;5.30;;;1.10;;
79687;SDS011;69155;49.464;2.108;2024-01-06T14:22:17;5.43;;;1.15;;
79687;SDS011;69155;49.464;2.108;2024-01-06T14:24:42;2.47;;;0.93;;
79687;SDS011;69155;49.464;2.108;2024-01-06T14:27:07;1.27;;;0.60;;
79687;SDS011;69155;49.464;2.108;2024-01-06T14:29:33;1.60;;;0.83;;
79687;SDS011;69155;49.464;2.108;2024-01-06T14:31:58;2.50;;;0.80;;
79687;SDS011;69155;49.464;2.108;2024-01-06T14:34:23;2.73;;;1.20;;
79687;SDS011;69155;49.464;2.108;2024-01-06T14:36:49;1.90;;;1.20;;
79687;SDS011;69155;49.464;2.108;2024-01-06T14:39:15;1.90;;;1.20;;
79687;SDS011;69155;49.464;2.108;2024-01-06T14:41:43;2.10;;;1.33;;
79687;SDS011;69155;49.464;2.108;2024-01-06T14:44:08;3.20;;;0.90;;
79687;SDS011;69155;49.464;2.108;2024-01-06T14:46:33;1.38;;;0.57;;
79687;SDS011;69155;49.464;2.108;2024-01-06T14:49:00;1.35;;;1.00;;
79687;SDS011;69155;49.464;2.108;2024-01-06T14:51:26;4.20;;;1.30;;
79687;SDS011;69155;49.464;2.108;2024-01-06T14:53:51;1.60;;;1.03;;
79687;SDS011;69155;49.464;2.108;2024-01-06T14:56:16;4.93;;;1.40;;
79687;SDS011;69155;49.464;2.108;2024-01-06T14:58:45;3.93;;;1.23;;
79687;SDS011;69155;49.464;2.108;2024-01-06T15:01:10;3.35;;;1.25;;
79687;SDS011;69155;49.464;2.108;2024-01-06T15:03:35;1.70;;;1.20;;
79687;SDS011;69155;49.464;2.108;2024-01-06T15:06:00;2.13;;;1.27;;
79687;SDS011;69155;49.464;2.108;2024-01-06T15:08:25;1.20;;;1.10;;